createdAt,value
2022-09-05T00:01:41.271Z,58.85
2022-09-05T00:06:51.009Z,59.09
2022-09-05T00:11:56.636Z,59.22
2022-09-05T00:17:10.472Z,59.28
2022-09-05T00:24:34.274Z,59.74
2022-09-05T00:27:54.750Z,60.05
2022-09-05T00:33:17.599Z,60.06
2022-09-05T00:38:23.637Z,60.50
2022-09-05T00:43:34.585Z,60.50
2022-09-05T00:48:45.937Z,60.49
2022-09-05T00:54:02.657Z,60.75
2022-09-05T00:59:58.787Z,61.14
2022-09-05T01:05:06.415Z,61.25
2022-09-05T01:10:23.611Z,61.60
2022-09-05T01:15:32.740Z,62.13
2022-09-05T01:20:46.710Z,62.46
2022-09-05T01:26:17.553Z,62.66
2022-09-05T01:31:27.861Z,62.70
2022-09-05T01:36:43.525Z,62.89
2022-09-05T01:41:53.306Z,63.13
2022-09-05T01:47:07.991Z,63.48
2022-09-05T01:52:34.961Z,63.44
2022-09-05T01:57:45.301Z,63.84
2022-09-05T02:02:58.078Z,64.07
2022-09-05T02:08:10.352Z,64.26
2022-09-05T02:13:19.813Z,64.34
2022-09-05T02:18:30.508Z,64.25
2022-09-05T02:23:42.027Z,64.23
2022-09-05T02:28:51.173Z,64.30
2022-09-05T02:34:02.443Z,64.69
2022-09-05T02:43:42.389Z,65.08
2022-09-05T02:45:10.982Z,65.14
2022-09-05T02:57:17.342Z,65.21
2022-09-05T02:57:41.355Z,65.29
2022-09-05T03:01:28.140Z,65.80
2022-09-05T03:06:36.937Z,65.92
2022-09-05T03:12:28.656Z,66.13
2022-09-05T03:18:20.892Z,66.09
2022-09-05T03:24:15.155Z,66.73
2022-09-05T03:29:35.577Z,66.97
2022-09-05T03:35:08.265Z,67.24
2022-09-05T03:40:36.554Z,67.49
2022-09-05T03:45:58.941Z,67.63
2022-09-05T03:57:06.749Z,67.73
2022-09-05T03:57:26.749Z,67.97
2022-09-05T04:08:10.245Z,68.21
2022-09-05T04:08:16.626Z,68.41
2022-09-05T04:13:19.208Z,68.61
2022-09-05T04:18:33.768Z,68.76
2022-09-05T04:23:48.416Z,68.77
2022-09-05T04:29:05.257Z,68.93
2022-09-05T04:34:21.064Z,69.09
2022-09-05T04:39:28.269Z,69.12
2022-09-05T04:44:33.928Z,69.20
2022-09-05T04:49:41.877Z,69.16
2022-09-05T04:54:49.741Z,69.22
2022-09-05T05:03:56.508Z,69.10
2022-09-05T05:06:11.906Z,69.04
2022-09-05T05:17:29.845Z,69.02
2022-09-05T05:18:12.951Z,69.11
2022-09-05T05:21:38.846Z,69.06
2022-09-05T05:26:45.804Z,69.02
2022-09-05T05:31:52.480Z,69.10
2022-09-05T05:37:01.112Z,69.04
2022-09-05T05:42:19.935Z,69.01
2022-09-05T05:47:31.286Z,68.88
2022-09-05T05:53:06.773Z,68.70
2022-09-05T05:58:17.211Z,68.67
2022-09-05T06:03:44.173Z,68.72
2022-09-05T06:13:00.924Z,68.73
2022-09-05T06:15:12.147Z,68.50
2022-09-05T06:22:05.779Z,68.43
2022-09-05T06:26:26.463Z,68.40
2022-09-05T06:31:40.331Z,68.31
2022-09-05T06:36:51.674Z,68.37
2022-09-05T06:42:10.086Z,68.29
2022-09-05T06:47:34.442Z,68.26
2022-09-05T06:53:19.645Z,68.32
2022-09-05T06:59:13.792Z,68.20
2022-09-05T07:05:23.459Z,68.25
2022-09-05T07:09:59.037Z,68.30
2022-09-05T07:15:11.946Z,68.20
2022-09-05T07:20:22.129Z,68.16
2022-09-05T07:25:31.645Z,68.16
2022-09-05T07:30:44.992Z,67.98
2022-09-05T07:35:50.697Z,67.89
2022-09-05T07:40:58.046Z,67.36
2022-09-05T07:46:11.779Z,67.27
2022-09-05T07:56:46.686Z,67.35
2022-09-05T07:57:20.673Z,66.94
2022-09-05T08:02:11.533Z,67.14
2022-09-05T08:07:49.302Z,66.53
2022-09-05T08:13:22.393Z,66.65
2022-09-05T08:18:11.095Z,66.44
2022-09-05T08:23:26.754Z,66.52
2022-09-05T08:28:39.622Z,66.50
2022-09-05T08:33:44.450Z,66.31
2022-09-05T08:38:50.013Z,66.16
2022-09-05T08:46:47.526Z,65.82
2022-09-05T08:49:41.400Z,65.28
2022-09-05T08:55:06.305Z,65.05
2022-09-05T09:00:19.167Z,64.76
2022-09-05T09:06:12.080Z,64.95
2022-09-05T09:11:04.300Z,64.24
2022-09-05T09:16:10.822Z,64.26
2022-09-05T09:21:25.260Z,64.27
2022-09-05T09:26:34.312Z,64.21
2022-09-05T09:31:51.352Z,64.04
2022-09-05T09:37:09.671Z,63.61
2022-09-05T09:42:33.146Z,63.57
2022-09-05T09:48:16.455Z,63.26
2022-09-05T09:53:30.300Z,62.61
2022-09-05T09:59:08.287Z,62.53
2022-09-05T10:10:34.567Z,62.52
2022-09-05T10:11:51.450Z,62.19
2022-09-05T10:16:47.720Z,62.12
2022-09-05T10:27:50.245Z,61.88
2022-09-05T10:35:17.389Z,61.33
2022-09-05T10:39:13.625Z,60.86
2022-09-05T10:44:18.585Z,60.28
2022-09-05T10:49:30.183Z,59.08
2022-09-05T10:54:38.951Z,58.50
2022-09-05T11:02:21.956Z,58.06
2022-09-05T11:05:24.893Z,57.26
2022-09-05T11:10:33.026Z,57.06
2022-09-05T11:16:04.850Z,57.12
2022-09-05T11:21:13.497Z,55.82
2022-09-05T11:26:29.173Z,51.35
2022-09-05T11:34:12.836Z,47.02
2022-09-05T11:40:02.601Z,44.97
2022-09-05T11:42:49.870Z,45.85
2022-09-05T11:48:17.612Z,48.15
2022-09-05T11:53:52.738Z,47.42
2022-09-05T11:59:13.863Z,46.58
2022-09-05T12:04:29.666Z,45.39
2022-09-05T12:09:47.610Z,44.13
2022-09-05T12:15:04.310Z,41.82
2022-09-05T12:20:36.043Z,41.49
2022-09-05T12:27:38.514Z,41.94
2022-09-05T12:32:30.456Z,41.60
2022-09-05T12:40:43.382Z,41.77
2022-09-05T12:42:25.814Z,40.72
2022-09-05T12:47:50.045Z,41.24
2022-09-05T12:53:01.889Z,43.37
2022-09-05T13:02:58.520Z,42.95
2022-09-05T13:04:15.930Z,43.10
2022-09-05T13:09:19.497Z,44.57
2022-09-05T13:14:58.634Z,46.10
2022-09-05T13:19:52.006Z,45.23
2022-09-05T13:25:17.399Z,44.23
2022-09-05T13:32:46.960Z,44.54
2022-09-05T13:38:19.875Z,43.18
2022-09-05T13:41:27.390Z,43.01
2022-09-05T13:46:39.899Z,42.54
2022-09-05T13:51:45.353Z,42.30
2022-09-05T13:56:54.559Z,42.95
2022-09-05T14:02:25.548Z,43.24
2022-09-05T14:08:00.114Z,42.58
2022-09-05T14:13:04.782Z,42.64
2022-09-05T14:18:20.907Z,41.38
2022-09-05T14:23:28.617Z,40.74
2022-09-05T14:28:33.888Z,40.10
2022-09-05T14:37:50.883Z,40.45
2022-09-05T14:39:39.761Z,41.24
2022-09-05T14:45:18.670Z,43.27
2022-09-05T14:50:48.280Z,44.77
2022-09-05T14:56:28.569Z,44.21
2022-09-05T15:02:57.903Z,42.63
2022-09-05T15:07:00.857Z,45.75
2022-09-05T15:12:31.241Z,46.68
2022-09-05T15:17:39.315Z,45.08
2022-09-05T15:22:43.283Z,41.22
2022-09-05T15:27:49.414Z,41.74
2022-09-05T15:32:52.261Z,42.81
2022-09-05T15:37:54.981Z,43.46
2022-09-05T15:43:02.014Z,43.60
2022-09-05T15:48:12.525Z,43.85
2022-09-05T15:53:23.847Z,44.86
2022-09-05T15:58:28.375Z,45.37
2022-09-05T16:06:42.783Z,46.71
2022-09-05T16:10:37.634Z,47.89
2022-09-05T16:15:04.713Z,47.98
2022-09-05T16:23:32.257Z,48.37
2022-09-05T16:25:43.741Z,49.09
2022-09-05T16:30:48.085Z,49.28
2022-09-05T16:35:54.946Z,49.17
2022-09-05T16:41:00.224Z,49.71
2022-09-05T16:46:08.500Z,49.97
2022-09-05T16:51:34.912Z,50.07
2022-09-05T16:56:41.073Z,50.01
2022-09-05T17:02:06.318Z,50.31
2022-09-05T17:07:14.969Z,50.79
2022-09-05T17:12:22.315Z,51.02
2022-09-05T17:18:20.740Z,51.27
2022-09-05T17:29:17.569Z,51.46
2022-09-05T17:29:27.001Z,51.85
2022-09-05T17:34:29.468Z,52.31
2022-09-05T17:39:44.886Z,52.74
2022-09-05T17:44:54.665Z,52.78
2022-09-05T17:50:14.852Z,53.09
2022-09-05T17:55:18.538Z,53.44
2022-09-05T18:01:01.072Z,53.73
2022-09-05T18:06:07.026Z,53.86
2022-09-05T18:11:14.400Z,54.22
2022-09-05T18:16:31.285Z,54.57
2022-09-05T18:21:54.313Z,54.75
2022-09-05T18:27:11.411Z,55.17
2022-09-05T18:32:40.858Z,55.29
2022-09-05T18:37:52.766Z,55.43
2022-09-05T18:42:56.655Z,55.71
2022-09-05T18:48:13.684Z,55.91
2022-09-05T18:53:25.435Z,56.03
2022-09-05T18:58:34.540Z,56.15
2022-09-05T19:03:38.425Z,56.33
2022-09-05T19:08:47.134Z,56.36
2022-09-05T19:13:57.803Z,56.54
2022-09-05T19:19:16.670Z,56.59
2022-09-05T19:24:21.741Z,56.92
2022-09-05T19:36:51.101Z,57.06
2022-09-05T19:45:48.909Z,57.42
2022-09-05T19:47:37.066Z,57.50
2022-09-05T19:51:16.508Z,57.99
2022-09-05T19:56:22.273Z,58.17
2022-09-05T20:08:33.194Z,58.83
2022-09-05T20:13:37.314Z,58.98
2022-09-05T20:18:41.342Z,59.09
2022-09-05T20:23:49.210Z,59.25
2022-09-05T20:28:57.418Z,59.58
2022-09-05T20:34:03.152Z,59.58
2022-09-05T20:43:22.634Z,59.82
2022-09-05T20:44:48.413Z,59.89
2022-09-05T20:54:13.741Z,60.27
2022-09-05T20:55:40.334Z,60.15
2022-09-05T21:01:20.355Z,60.48
2022-09-05T21:06:29.381Z,60.66
2022-09-05T21:11:36.044Z,60.64
2022-09-05T21:16:44.591Z,61.16
2022-09-05T21:22:02.295Z,61.40
2022-09-05T21:27:16.921Z,61.83
2022-09-05T21:32:21.308Z,61.78
2022-09-05T21:37:24.022Z,62.16
2022-09-05T21:43:43.603Z,62.30
2022-09-05T21:47:53.621Z,62.00
2022-09-05T21:54:54.687Z,62.44
2022-09-05T21:59:36.676Z,62.78
2022-09-05T22:03:47.030Z,63.02
2022-09-05T22:09:11.349Z,63.02
2022-09-05T22:14:12.704Z,63.41
2022-09-05T22:19:22.667Z,63.37
2022-09-05T22:24:27.176Z,63.41
2022-09-05T22:29:31.095Z,63.35
2022-09-05T22:34:35.598Z,63.60
2022-09-05T22:39:38.401Z,63.63
2022-09-05T22:44:41.711Z,63.30
2022-09-05T22:49:45.730Z,63.64
2022-09-05T22:54:48.365Z,63.29
2022-09-05T22:59:51.236Z,63.66
2022-09-05T23:04:55.251Z,64.12
2022-09-05T23:09:57.868Z,63.83
2022-09-05T23:15:00.531Z,64.25
2022-09-05T23:20:05.438Z,64.06
2022-09-05T23:25:08.644Z,64.07
2022-09-05T23:30:12.046Z,64.41
2022-09-05T23:35:16.717Z,64.05
2022-09-05T23:40:21.908Z,64.43
2022-09-05T23:45:25.589Z,64.54
2022-09-05T23:50:29.759Z,64.89
2022-09-05T23:55:32.810Z,64.73
